Metalton, Arkansas
Current Conditions -  °F | °C
As of 11:53 AM on Thursday 27 Nov 2014 (Local Time) from KHRO Reporting Station
Clear Clear  
Wind Chill: 34°   Ceiling: Unl
Heat Index: 40°   Visibility: 10mi
Dew Point: 25°   Wind: 8mph
Humidity: 55%   Direction: 310°NW
Pressure: 30.49"   Gusts: NA
Location:  36.3056°N, 93.5491°W
Report Text: KHRO 271753Z AUTO 31007KT 10SM CLR 04/M04 A3049 RMK AO2 SLP333 T00441039 10044 21028 58002
Loading
Personal Weather Stations






























Interactive Weather Map New forecast layout! Learn more

10-Day Weather Forecast

Advertisements
Track Severe Weather on mobile